Time;durP1;ratioP1;P1;durP2;ratioP2;P2;SDS_P1;SDS_P2;PMS_P1;PMS_P2;Temp;Humidity;BMP_temperature;BMP_pressure;BME280_temperature;BME280_humidity;BME280_pressure;Samples;Min_cycle;Max_cycle;Signal;HPM_P1;HPM_P2
2022/09/11 00:02:33;;;;;;;33.80;19.20;;;;;;;14.59;83.22;99370.02;213149;1276;141506;-65
2022/09/11 00:07:36;;;;;;;32.50;19.40;;;;;;;14.58;83.32;99369.27;214396;1276;140450;-66
2022/09/11 00:12:39;;;;;;;25.70;17.30;;;;;;;14.57;83.13;99372.44;213513;1276;141256;-67
2022/09/11 00:17:42;;;;;;;27.00;17.20;;;;;;;14.55;83.26;99370.45;213158;1276;141499;-65
2022/09/11 00:22:47;;;;;;;36.10;20.90;;;;;;;14.56;83.13;99364.83;213502;1276;141213;-66
2022/09/11 00:27:50;;;;;;;33.50;19.20;;;;;;;14.53;83.22;99363.48;213410;1276;140993;-65
2022/09/11 00:32:54;;;;;;;26.40;18.60;;;;;;;14.55;83.28;99357.16;214169;1276;141479;-65
2022/09/11 00:37:58;;;;;;;29.70;19.00;;;;;;;14.54;83.30;99354.42;213891;1276;141295;-65
2022/09/11 00:43:01;;;;;;;38.60;18.50;;;;;;;14.56;83.45;99348.41;214031;1276;141635;-67
2022/09/11 00:48:10;;;;;;;29.10;19.30;;;;;;;14.59;83.52;99345.89;213522;1275;140027;-70
2022/09/11 00:53:16;;;;;;;32.20;19.20;;;;;;;14.59;83.46;99341.86;214605;1276;140846;-66
2022/09/11 00:58:25;;;;;;;30.60;17.50;;;;;;;14.60;83.38;99339.77;215151;1275;140587;-66
2022/09/11 01:03:28;;;;;;;29.80;19.90;;;;;;;14.60;83.34;99334.61;214898;1276;141198;-67
2022/09/11 01:08:31;;;;;;;28.60;18.60;;;;;;;14.60;83.28;99334.46;215979;1274;141606;-67
2022/09/11 01:14:07;;;;;;;29.90;17.90;;;;;;;14.62;83.39;99333.27;215955;1275;140332;-65
2022/09/11 01:19:40;;;;;;;36.80;19.70;;;;;;;14.62;83.27;99331.66;216045;1275;140816;-65
2022/09/11 01:25:01;;;;;;;33.40;18.30;;;;;;;14.59;83.45;99333.92;215235;1275;139731;-65
2022/09/11 01:30:28;;;;;;;32.30;17.70;;;;;;;14.61;83.56;99333.60;215872;1276;140255;-65
2022/09/11 01:35:41;;;;;;;31.40;19.10;;;;;;;14.61;83.34;99328.77;213740;1276;141036;-65
2022/09/11 01:40:52;;;;;;;32.40;19.60;;;;;;;14.63;83.54;99329.48;213824;1276;142004;-65
2022/09/11 01:46:00;;;;;;;31.60;17.60;;;;;;;14.61;83.44;99325.67;214494;1275;140729;-67
2022/09/11 01:51:06;;;;;;;25.50;15.80;;;;;;;14.61;83.71;99322.17;214108;1276;141920;-65
2022/09/11 01:56:15;;;;;;;23.20;14.50;;;;;;;14.61;83.66;99317.34;213879;1276;141727;-65
2022/09/11 02:01:23;;;;;;;20.70;14.00;;;;;;;14.60;83.74;99312.85;213916;1276;140346;-65
2022/09/11 02:06:39;;;;;;;20.80;11.30;;;;;;;14.62;83.97;99306.78;213272;1275;140479;-65
2022/09/11 02:11:46;;;;;;;23.40;12.70;;;;;;;14.65;84.02;99307.90;213991;1276;141145;-65
2022/09/11 02:16:57;;;;;;;16.40;12.20;;;;;;;14.65;83.87;99304.04;212864;1278;139661;-65
2022/09/11 02:22:01;;;;;;;17.40;10.30;;;;;;;14.64;84.17;99298.62;213569;1276;139533;-65
2022/09/11 02:27:11;;;;;;;18.70;11.40;;;;;;;14.62;84.06;99299.80;214480;1275;140304;-64
2022/09/11 02:32:17;;;;;;;13.40;10.20;;;;;;;14.60;84.13;99296.16;214310;1275;140513;-65
2022/09/11 02:37:51;;;;;;;15.50;10.40;;;;;;;14.61;84.13;99291.97;213358;1275;141642;-67
2022/09/11 02:43:23;;;;;;;19.70;10.60;;;;;;;14.62;84.38;99288.97;213662;1276;142246;-67
2022/09/11 02:48:39;;;;;;;12.00;7.60;;;;;;;14.64;84.40;99291.05;215360;1275;141752;-67
2022/09/11 02:53:48;;;;;;;10.10;8.50;;;;;;;14.69;84.36;99292.73;215465;1275;140480;-69
2022/09/11 02:59:06;;;;;;;12.00;7.90;;;;;;;14.71;84.26;99292.95;214568;1276;142584;-67
2022/09/11 03:04:10;;;;;;;8.90;7.20;;;;;;;14.71;84.23;99293.15;215188;1274;140568;-68
2022/09/11 03:09:13;;;;;;;7.60;5.70;;;;;;;14.69;83.92;99298.53;215974;1275;140443;-70
2022/09/11 03:14:16;;;;;;;11.20;8.50;;;;;;;14.68;83.91;99300.41;214900;1277;140565;-65
2022/09/11 03:19:20;;;;;;;6.70;6.00;;;;;;;14.66;83.97;99300.45;214882;1275;139897;-65
2022/09/11 03:24:23;;;;;;;11.80;7.00;;;;;;;14.63;83.70;99298.14;214647;1276;139780;-66
2022/09/11 03:29:26;;;;;;;8.40;6.90;;;;;;;14.57;83.74;99298.67;213100;1276;140581;-65
2022/09/11 03:34:28;;;;;;;11.70;7.20;;;;;;;14.53;83.63;99296.75;215174;1276;140726;-67
2022/09/11 03:39:31;;;;;;;10.60;6.90;;;;;;;14.49;83.90;99300.18;214308;1276;140495;-66
2022/09/11 03:44:34;;;;;;;8.80;7.30;;;;;;;14.45;83.61;99302.66;214998;1276;140249;-66
2022/09/11 03:49:36;;;;;;;11.70;8.50;;;;;;;14.42;83.72;99299.87;214405;1275;140251;-66
2022/09/11 03:54:40;;;;;;;12.20;9.60;;;;;;;14.40;83.55;99302.54;213606;1276;142397;-66
2022/09/11 03:59:43;;;;;;;11.30;9.40;;;;;;;14.38;83.76;99299.84;213813;1276;139797;-66
2022/09/11 04:04:46;;;;;;;12.60;9.00;;;;;;;14.33;83.67;99299.92;213780;1276;140080;-66
2022/09/11 04:09:50;;;;;;;13.00;8.00;;;;;;;14.30;83.75;99299.39;214055;1276;139484;-67
2022/09/11 04:14:54;;;;;;;11.30;8.50;;;;;;;14.28;83.91;99298.70;213278;1276;139876;-65
2022/09/11 04:19:57;;;;;;;14.10;8.80;;;;;;;14.26;83.74;99300.41;214248;1276;141856;-68
2022/09/11 04:25:00;;;;;;;14.10;8.30;;;;;;;14.25;83.97;99297.56;213233;1275;141171;-68
2022/09/11 04:30:05;;;;;;;13.20;8.50;;;;;;;14.23;83.79;99293.70;214502;1275;142541;-67
2022/09/11 04:35:08;;;;;;;13.00;8.60;;;;;;;14.22;83.96;99296.48;214627;1275;140104;-67
2022/09/11 04:40:12;;;;;;;23.20;9.30;;;;;;;14.23;83.88;99297.23;214001;1275;140899;-67
2022/09/11 04:45:15;;;;;;;13.40;9.20;;;;;;;14.25;84.23;99299.06;214455;1277;140272;-67
2022/09/11 04:50:18;;;;;;;15.00;8.30;;;;;;;14.30;84.13;99294.18;213829;1275;140958;-66
2022/09/11 04:55:20;;;;;;;10.60;8.30;;;;;;;14.31;84.17;99294.35;214074;1276;142155;-67
2022/09/11 05:00:24;;;;;;;17.30;10.60;;;;;;;14.32;84.22;99293.23;216072;1275;139473;-67
2022/09/11 05:05:27;;;;;;;19.00;10.70;;;;;;;14.30;83.99;99289.73;215938;1275;140576;-67
2022/09/11 05:10:30;;;;;;;14.10;9.70;;;;;;;14.29;83.73;99287.33;215867;1274;140432;-66
2022/09/11 05:15:32;;;;;;;17.70;8.90;;;;;;;14.29;83.79;99286.89;215798;1276;141887;-67
2022/09/11 05:20:34;;;;;;;15.10;10.20;;;;;;;14.32;83.72;99291.66;215852;1276;141267;-66
2022/09/11 05:25:36;;;;;;;16.80;10.50;;;;;;;14.36;83.72;99293.21;214748;1276;141726;-66
2022/09/11 05:30:38;;;;;;;14.70;9.50;;;;;;;14.41;83.96;99295.73;215385;1276;140295;-67
2022/09/11 05:35:43;;;;;;;16.90;10.20;;;;;;;14.44;84.08;99297.41;213627;1274;139667;-66
2022/09/11 05:40:48;;;;;;;13.40;9.10;;;;;;;14.48;83.98;99298.90;213144;1276;140709;-67
2022/09/11 05:45:55;;;;;;;14.20;8.60;;;;;;;14.52;83.97;99305.39;215071;1275;140443;-67
2022/09/11 05:51:01;;;;;;;10.60;8.00;;;;;;;14.55;84.11;99303.61;213282;1274;140602;-67
2022/09/11 05:56:18;;;;;;;17.40;8.80;;;;;;;14.57;83.88;99305.65;213178;1275;139961;-67
2022/09/11 06:01:26;;;;;;;16.40;10.20;;;;;;;14.54;84.23;99300.30;213438;1277;139576;-66
2022/09/11 06:06:30;;;;;;;14.50;10.20;;;;;;;14.52;84.00;99300.88;213000;1276;140297;-66
2022/09/11 06:11:33;;;;;;;15.50;9.70;;;;;;;14.54;84.16;99300.39;213155;1274;140344;-66
2022/09/11 06:16:35;;;;;;;11.10;8.40;;;;;;;14.57;84.06;99302.43;213157;1274;140053;-66
2022/09/11 06:21:37;;;;;;;15.30;8.80;;;;;;;14.63;84.32;99301.58;213026;1277;141107;-67
2022/09/11 06:26:45;;;;;;;21.40;8.80;;;;;;;14.71;84.27;99307.07;213035;1277;140270;-66
2022/09/11 06:31:50;;;;;;;12.20;9.20;;;;;;;14.79;84.42;99309.63;214198;1274;140252;-66
2022/09/11 06:36:54;;;;;;;11.70;7.60;;;;;;;14.91;84.22;99309.61;213962;1274;141905;-66
2022/09/11 06:41:58;;;;;;;12.90;7.70;;;;;;;14.99;84.24;99305.31;214266;1275;141216;-67
2022/09/11 06:47:02;;;;;;;13.20;7.00;;;;;;;15.07;84.14;99301.90;213651;1274;140596;-66
2022/09/11 06:52:05;;;;;;;9.10;6.90;;;;;;;15.12;83.95;99306.61;215813;1276;140376;-67
2022/09/11 06:57:08;;;;;;;12.50;8.20;;;;;;;15.17;83.85;99307.67;215883;1275;139554;-68
2022/09/11 07:02:12;;;;;;;8.40;6.60;;;;;;;15.15;83.49;99309.98;215799;1276;142096;-70
2022/09/11 07:07:14;;;;;;;15.40;8.80;;;;;;;15.12;83.11;99317.24;216173;1276;140378;-70
2022/09/11 07:12:22;;;;;;;13.30;6.90;;;;;;;15.13;83.22;99315.41;216022;1275;141606;-69
2022/09/11 07:17:25;;;;;;;12.60;8.70;;;;;;;15.13;83.04;99308.48;215425;1276;141560;-70
2022/09/11 07:22:29;;;;;;;12.20;8.50;;;;;;;15.22;83.12;99306.15;215015;1274;140241;-69
2022/09/11 07:27:34;;;;;;;11.40;7.60;;;;;;;15.25;82.93;99305.02;213960;1274;140639;-70
2022/09/11 07:32:36;;;;;;;12.70;8.70;;;;;;;15.30;83.04;99299.81;213339;1275;141063;-71
2022/09/11 07:37:38;;;;;;;7.50;6.30;;;;;;;15.36;82.97;99296.62;213084;1275;141884;-70
2022/09/11 07:42:41;;;;;;;8.70;6.90;;;;;;;15.48;82.93;99291.95;214421;1274;142766;-71
2022/09/11 07:47:45;;;;;;;10.50;7.20;;;;;;;15.61;82.80;99297.27;213240;1274;141916;-68
2022/09/11 07:52:48;;;;;;;7.90;6.40;;;;;;;15.67;82.53;99299.96;213898;1274;140985;-69
2022/09/11 07:57:54;;;;;;;10.80;7.00;;;;;;;15.69;82.46;99307.64;214800;1275;140025;-71
2022/09/11 08:02:57;;;;;;;11.80;6.20;;;;;;;15.73;82.43;99309.34;214197;1274;139811;-69
2022/09/11 08:08:00;;;;;;;8.00;6.80;;;;;;;15.78;82.02;99313.72;213838;1276;140871;-66
2022/09/11 08:13:04;;;;;;;9.40;6.70;;;;;;;15.78;81.96;99314.09;213657;1274;151916;-69
2022/09/11 08:18:10;;;;;;;6.40;5.50;;;;;;;15.84;81.98;99310.23;213060;1276;141917;-70
2022/09/11 08:23:14;;;;;;;8.40;6.00;;;;;;;15.91;81.48;99318.30;212860;1276;141639;-68
2022/09/11 08:28:16;;;;;;;7.70;6.00;;;;;;;15.99;81.56;99319.41;214356;1276;153412;-71
2022/09/11 08:33:19;;;;;;;9.00;6.00;;;;;;;16.14;81.31;99317.33;213952;1274;140214;-70
2022/09/11 08:38:21;;;;;;;7.30;5.70;;;;;;;16.14;80.73;99326.84;215129;1274;140254;-69
2022/09/11 08:43:37;;;;;;;8.60;6.40;;;;;;;16.20;80.88;99330.56;215022;1274;141452;-72
2022/09/11 08:48:49;;;;;;;9.00;6.90;;;;;;;16.43;80.68;99330.41;214581;1275;140077;-68
2022/09/11 08:53:55;;;;;;;6.50;5.90;;;;;;;16.70;80.42;99328.10;215637;1275;141767;-69
2022/09/11 08:59:18;;;;;;;8.50;6.40;;;;;;;16.68;79.71;99332.52;213314;1275;142324;-71
2022/09/11 09:04:40;;;;;;;9.00;7.00;;;;;;;16.54;79.26;99338.75;213781;1274;141809;-67
2022/09/11 09:10:31;;;;;;;7.50;6.60;;;;;;;16.51;79.11;99338.29;215511;1275;139936;-67
2022/09/11 09:16:02;;;;;;;7.00;5.90;;;;;;;16.69;79.15;99336.05;213562;1276;141165;-68
2022/09/11 09:21:18;;;;;;;9.50;8.70;;;;;;;17.00;79.01;99334.94;214636;1275;140342;-68
2022/09/11 09:26:28;;;;;;;11.90;7.70;;;;;;;17.07;78.33;99330.17;215004;1274;140855;-70
2022/09/11 09:31:32;;;;;;;10.60;6.50;;;;;;;17.00;77.65;99333.27;212992;1275;142379;-67
2022/09/11 09:36:44;;;;;;;8.10;7.20;;;;;;;17.02;77.32;99333.14;214369;1274;139673;-69
2022/09/11 09:42:23;;;;;;;9.40;7.10;;;;;;;16.94;77.05;99336.60;214263;1274;140091;-70
2022/09/11 09:47:25;;;;;;;10.30;6.60;;;;;;;16.89;76.84;99340.91;213198;1274;139381;-70
2022/09/11 09:52:34;;;;;;;8.80;7.10;;;;;;;16.81;76.58;99338.69;213031;1276;139525;-68
2022/09/11 09:57:38;;;;;;;7.50;6.70;;;;;;;16.85;76.59;99338.15;211557;1274;245883;-66
2022/09/11 10:02:53;;;;;;;12.80;7.90;;;;;;;16.94;76.42;99339.14;214170;1275;140154;-67
2022/09/11 10:08:24;;;;;;;7.00;6.20;;;;;;;16.99;76.64;99341.95;213954;1275;139799;-70
2022/09/11 10:13:30;;;;;;;7.80;7.00;;;;;;;17.16;76.40;99339.25;213979;1274;139395;-69
2022/09/11 10:18:43;;;;;;;;;;;;;;;17.07;75.94;99343.89;213121;1276;140151;-69
2022/09/11 10:24:17;;;;;;;7.70;7.10;;;;;;;16.73;75.65;99347.05;214738;1274;127380;-68
2022/09/11 10:29:25;;;;;;;8.10;7.30;;;;;;;16.47;75.57;99348.78;213519;1276;139249;-68
2022/09/11 10:34:38;;;;;;;12.40;7.80;;;;;;;16.31;75.70;99353.16;213622;1275;141827;-68
2022/09/11 10:39:42;;;;;;;7.90;7.10;;;;;;;16.29;75.61;99360.11;213667;1276;140503;-68
2022/09/11 10:44:46;;;;;;;9.30;7.80;;;;;;;16.39;75.85;99359.17;213236;1276;140111;-70
2022/09/11 10:49:49;;;;;;;8.90;7.10;;;;;;;16.69;75.80;99356.79;216052;1275;141040;-69
2022/09/11 10:54:54;;;;;;;6.80;5.60;;;;;;;16.85;75.47;99354.09;215979;1275;139351;-70
2022/09/11 11:00:15;;;;;;;6.80;6.10;;;;;;;16.85;74.77;99355.16;215730;1274;140336;-69
2022/09/11 11:05:40;;;;;;;6.30;5.50;;;;;;;16.96;74.74;99353.98;216071;1275;140673;-70
2022/09/11 11:10:54;;;;;;;7.90;5.90;;;;;;;17.07;74.27;99355.64;215116;1275;139756;-68
2022/09/11 11:16:15;;;;;;;6.60;5.80;;;;;;;17.27;74.00;99360.70;215245;1275;141864;-68
2022/09/11 11:21:29;;;;;;;6.50;6.00;;;;;;;17.19;73.61;99370.67;213468;1276;139953;-69
2022/09/11 11:26:41;;;;;;;7.10;5.50;;;;;;;17.14;73.36;99369.66;213757;1276;139860;-68
2022/09/11 11:31:48;;;;;;;6.60;5.90;;;;;;;17.09;73.02;99370.44;213660;1274;140159;-67
2022/09/11 11:37:35;;;;;;;8.40;5.60;;;;;;;16.92;72.87;99379.83;213096;1275;140027;-69
2022/09/11 11:42:48;;;;;;;5.00;4.50;;;;;;;16.55;72.68;99379.92;213431;1274;140181;-69
2022/09/11 11:48:11;;;;;;;6.60;5.30;;;;;;;16.36;72.89;99387.13;213348;1274;139235;-68
2022/09/11 11:53:25;;;;;;;6.40;5.60;;;;;;;16.46;73.15;99389.25;213841;1273;140218;-68
2022/09/11 11:58:48;;;;;;;7.20;5.60;;;;;;;16.59;72.74;99390.85;212940;1274;140158;-69
2022/09/11 12:04:01;;;;;;;6.20;5.60;;;;;;;16.74;72.85;99389.74;213767;1274;138797;-68
2022/09/11 12:09:09;;;;;;;7.10;5.30;;;;;;;16.93;72.55;99389.23;214009;1274;139823;-68
2022/09/11 12:14:32;;;;;;;6.40;5.10;;;;;;;16.94;72.01;99390.23;213464;1274;140864;-69
2022/09/11 12:19:35;;;;;;;5.50;5.00;;;;;;;17.20;72.14;99392.05;215064;1274;139588;-69
2022/09/11 12:24:53;;;;;;;5.50;5.00;;;;;;;17.64;71.51;99396.31;214208;1274;139425;-68
2022/09/11 12:30:06;;;;;;;8.60;5.40;;;;;;;17.86;71.00;99402.17;213525;1276;141085;-69
2022/09/11 12:35:21;;;;;;;7.60;5.90;;;;;;;18.28;70.49;99400.38;213976;1274;154505;-67
2022/09/11 12:40:37;;;;;;;5.90;5.30;;;;;;;18.24;69.66;99399.09;213464;1274;140154;-68
2022/09/11 12:45:42;;;;;;;9.50;5.00;;;;;;;17.95;69.17;99397.95;214089;1276;139968;-68
2022/09/11 12:50:52;;;;;;;6.10;5.60;;;;;;;17.88;69.01;99400.00;214453;1275;139977;-67
2022/09/11 12:56:15;;;;;;;5.20;4.70;;;;;;;18.13;69.20;99402.11;215976;1275;140496;-70
2022/09/11 13:01:26;;;;;;;5.40;4.70;;;;;;;18.50;68.37;99402.25;215943;1275;139933;-69
2022/09/11 13:06:53;;;;;;;8.40;4.70;;;;;;;18.67;67.84;99401.45;214053;1276;144111;-69
2022/09/11 13:12:24;;;;;;;8.00;4.80;;;;;;;18.53;67.33;99407.48;214093;1276;141882;-68
2022/09/11 13:17:44;;;;;;;5.80;4.90;;;;;;;18.22;66.96;99408.67;214144;1274;141843;-69
2022/09/11 13:22:46;;;;;;;4.40;3.40;;;;;;;17.98;67.26;99409.98;214377;1276;163295;-68
2022/09/11 13:28:01;;;;;;;6.50;3.90;;;;;;;17.71;66.87;99400.73;213229;1276;140846;-71
2022/09/11 13:33:16;;;;;;;7.00;5.10;;;;;;;17.48;66.64;99405.05;213267;1276;140688;-68
2022/09/11 13:38:24;;;;;;;5.00;4.20;;;;;;;17.33;67.22;99407.83;213813;1274;140333;-67
2022/09/11 13:43:49;;;;;;;4.70;4.00;;;;;;;17.31;67.58;99401.65;213270;1275;141694;-68
2022/09/11 13:49:22;;;;;;;13.20;5.00;;;;;;;17.30;67.55;99404.08;213695;1276;139474;-69
2022/09/11 13:54:30;;;;;;;12.00;4.60;;;;;;;17.22;67.50;99400.49;213617;1276;140223;-68
2022/09/11 13:59:50;;;;;;;9.20;4.70;;;;;;;17.15;67.40;99404.89;214123;1276;140708;-69
2022/09/11 14:05:14;;;;;;;5.00;4.10;;;;;;;17.22;67.78;99405.52;213738;1276;139973;-68
2022/09/11 14:10:23;;;;;;;8.70;3.90;;;;;;;17.42;67.91;99404.20;213242;1275;140966;-68
2022/09/11 14:15:37;;;;;;;3.90;3.30;;;;;;;17.56;67.74;99410.14;213809;1274;141934;-68
2022/09/11 14:20:42;;;;;;;6.60;4.20;;;;;;;17.60;67.45;99414.34;214056;1276;141372;-68
2022/09/11 14:26:09;;;;;;;4.40;3.40;;;;;;;17.62;66.90;99412.59;213408;1275;141283;-68
2022/09/11 14:31:26;;;;;;;5.60;3.80;;;;;;;17.65;66.65;99409.08;213693;1275;140823;-70
2022/09/11 14:36:28;;;;;;;5.30;4.80;;;;;;;17.75;66.57;99410.13;213275;1276;141342;-67
2022/09/11 14:41:32;;;;;;;6.10;3.50;;;;;;;17.85;66.45;99407.48;215467;1275;140459;-69
2022/09/11 14:46:34;;;;;;;10.10;4.30;;;;;;;17.93;65.59;99411.64;215836;1274;142231;-69
2022/09/11 14:51:39;;;;;;;6.60;3.00;;;;;;;17.97;65.20;99410.65;215984;1274;142940;-69
2022/09/11 14:56:43;;;;;;;9.10;3.40;;;;;;;17.93;64.86;99411.30;214836;1273;140258;-67
2022/09/11 15:01:46;;;;;;;6.30;2.80;;;;;;;17.87;64.51;99407.77;215424;1275;140124;-69
2022/09/11 15:06:52;;;;;;;6.40;3.30;;;;;;;17.82;64.54;99404.48;215995;1274;141898;-68
2022/09/11 15:11:57;;;;;;;5.00;3.50;;;;;;;17.73;64.60;99403.95;214530;1274;139511;-69
2022/09/11 15:17:03;;;;;;;3.80;2.20;;;;;;;17.72;64.71;99405.12;213418;1274;139523;-68
2022/09/11 15:22:07;;;;;;;6.90;3.10;;;;;;;17.70;64.68;99404.66;213974;1274;139705;-69
2022/09/11 15:27:11;;;;;;;3.30;3.00;;;;;;;17.71;64.77;99405.67;214947;1276;141299;-67
2022/09/11 15:32:14;;;;;;;5.20;3.50;;;;;;;17.67;64.54;99411.59;214807;1275;139835;-67
2022/09/11 15:37:18;;;;;;;2.70;2.50;;;;;;;17.60;64.49;99412.63;214710;1276;140162;-66
2022/09/11 15:42:22;;;;;;;4.50;2.70;;;;;;;17.52;64.63;99416.69;213213;1276;141663;-70
2022/09/11 15:47:30;;;;;;;4.40;4.00;;;;;;;17.39;64.66;99422.94;213271;1275;140849;-68
2022/09/11 15:52:36;;;;;;;7.50;3.90;;;;;;;17.27;64.81;99425.23;213587;1275;141150;-68
2022/09/11 15:57:41;;;;;;;4.60;3.40;;;;;;;17.25;64.97;99426.17;213084;1276;140054;-67
2022/09/11 16:02:45;;;;;;;4.70;3.80;;;;;;;17.30;65.30;99424.82;213299;1275;142820;-68
2022/09/11 16:07:49;;;;;;;4.40;4.00;;;;;;;17.31;65.50;99423.48;214317;1274;140715;-69
2022/09/11 16:13:00;;;;;;;4.00;3.60;;;;;;;17.24;65.68;99429.47;213786;1274;141383;-67
2022/09/11 16:18:03;;;;;;;4.80;3.50;;;;;;;17.18;65.98;99428.02;214295;1274;140122;-67
2022/09/11 16:23:13;;;;;;;3.70;3.40;;;;;;;17.06;65.93;99426.48;213832;1276;141330;-67
2022/09/11 16:28:18;;;;;;;7.40;3.70;;;;;;;16.85;65.94;99431.20;213522;1275;142217;-69
2022/09/11 16:33:24;;;;;;;8.30;4.30;;;;;;;16.67;66.20;99431.73;214289;1276;140338;-67
2022/09/11 16:38:28;;;;;;;7.00;6.30;;;;;;;16.62;66.20;99437.78;214173;1274;141387;-68
2022/09/11 16:43:30;;;;;;;7.10;4.60;;;;;;;16.46;66.38;99442.04;215969;1275;140603;-69
2022/09/11 16:48:32;;;;;;;5.00;4.10;;;;;;;16.34;66.64;99444.70;216028;1275;140685;-69
2022/09/11 16:53:36;;;;;;;4.10;3.70;;;;;;;16.20;66.90;99453.41;215535;1275;139921;-69
2022/09/11 16:58:38;;;;;;;13.20;7.80;;;;;;;16.08;67.03;99456.38;215829;1275;139472;-68
2022/09/11 17:03:44;;;;;;;10.90;4.80;;;;;;;16.01;67.30;99461.30;215188;1274;141869;-68
2022/09/11 17:08:50;;;;;;;17.00;8.80;;;;;;;15.95;67.51;99467.63;215062;1275;140534;-69
2022/09/11 17:13:54;;;;;;;12.60;8.40;;;;;;;15.84;67.72;99464.02;215262;1276;139797;-70
2022/09/11 17:18:59;;;;;;;13.00;8.50;;;;;;;15.71;67.93;99467.35;214405;1276;139577;-68
2022/09/11 17:24:05;;;;;;;7.00;4.70;;;;;;;15.57;68.14;99470.77;213434;1276;140329;-70
2022/09/11 17:29:08;;;;;;;;;;;;;;;15.43;68.42;99476.65;214073;1275;141780;-69
2022/09/11 17:34:13;;;;;;;6.20;4.00;;;;;;;15.26;68.69;99483.20;214710;1275;127055;-68
2022/09/11 17:39:17;;;;;;;9.30;6.40;;;;;;;15.11;68.93;99484.34;213092;1274;141711;-68
2022/09/11 17:44:23;;;;;;;9.20;5.70;;;;;;;15.00;69.32;99485.69;213509;1276;140324;-68
2022/09/11 17:49:31;;;;;;;4.60;4.20;;;;;;;14.89;69.41;99493.80;213481;1276;141779;-69
2022/09/11 17:54:39;;;;;;;5.20;4.60;;;;;;;14.73;69.55;99492.61;213931;1274;141040;-68
2022/09/11 17:59:47;;;;;;;8.60;5.50;;;;;;;14.59;69.58;99499.91;213694;1276;238304;-69
2022/09/11 18:04:52;;;;;;;6.00;5.00;;;;;;;14.42;70.00;99509.95;213650;1276;142103;-68
2022/09/11 18:09:55;;;;;;;19.30;5.40;;;;;;;14.32;70.43;99512.92;213072;1274;141311;-68
2022/09/11 18:15:01;;;;;;;14.10;7.70;;;;;;;14.23;70.73;99516.53;214094;1276;141916;-68
2022/09/11 18:20:06;;;;;;;8.00;7.20;;;;;;;14.15;70.78;99509.91;213548;1275;141300;-69
2022/09/11 18:25:09;;;;;;;11.40;6.20;;;;;;;14.07;71.11;99516.96;214779;1276;140905;-68
2022/09/11 18:30:14;;;;;;;6.30;4.90;;;;;;;14.01;71.36;99524.02;214653;1275;140091;-69
2022/09/11 18:35:18;;;;;;;15.80;6.30;;;;;;;13.92;71.60;99525.70;215124;1276;141313;-68
2022/09/11 18:40:22;;;;;;;4.70;4.30;;;;;;;13.86;71.93;99525.55;214832;1275;140409;-69
2022/09/11 18:45:29;;;;;;;7.50;4.40;;;;;;;13.79;72.09;99526.86;215793;1276;140456;-69
2022/09/11 18:50:34;;;;;;;4.80;4.30;;;;;;;13.72;72.28;99538.31;215811;1275;141092;-69
2022/09/11 18:55:38;;;;;;;4.80;4.40;;;;;;;13.70;72.47;99541.35;214243;1276;140236;-67
2022/09/11 19:00:42;;;;;;;5.40;4.00;;;;;;;13.67;72.67;99542.40;215661;1276;140243;-68
2022/09/11 19:05:46;;;;;;;6.80;4.80;;;;;;;13.61;72.67;99547.66;213264;1276;140569;-67
2022/09/11 19:10:49;;;;;;;6.40;4.20;;;;;;;13.49;72.67;99549.98;214169;1275;140068;-67
2022/09/11 19:15:56;;;;;;;7.90;4.90;;;;;;;13.40;72.62;99550.70;213677;1274;139793;-67
2022/09/11 19:21:11;;;;;;;6.00;3.90;;;;;;;13.29;72.79;99557.52;213400;1276;139522;-67
2022/09/11 19:26:19;;;;;;;8.00;5.90;;;;;;;13.15;72.88;99560.28;213758;1276;139019;-68
2022/09/11 19:31:29;;;;;;;14.40;12.10;;;;;;;13.04;72.93;99563.66;213930;1274;140674;-69
2022/09/11 19:36:34;;;;;;;16.90;11.30;;;;;;;12.90;72.90;99565.77;213441;1277;139835;-67
2022/09/11 19:41:38;;;;;;;11.00;9.00;;;;;;;12.71;72.97;99572.56;213437;1276;141013;-67
2022/09/11 19:46:44;;;;;;;12.10;5.70;;;;;;;12.57;73.15;99575.52;213872;1276;140171;-67
2022/09/11 19:51:51;;;;;;;7.80;5.90;;;;;;;12.41;73.39;99581.61;213874;1276;140586;-68
2022/09/11 19:56:54;;;;;;;7.80;5.60;;;;;;;12.31;73.76;99585.92;213364;1275;141356;-67
2022/09/11 20:01:59;;;;;;;10.40;5.10;;;;;;;12.19;73.61;99587.86;213294;1276;139889;-67
2022/09/11 20:07:03;;;;;;;9.60;6.20;;;;;;;12.03;73.79;99590.38;214864;1276;140021;-67
2022/09/11 20:12:06;;;;;;;17.20;6.40;;;;;;;11.92;74.43;99594.35;213351;1276;140350;-67
2022/09/11 20:17:11;;;;;;;7.20;5.10;;;;;;;11.94;75.07;99594.05;213978;1275;141425;-66
2022/09/11 20:22:18;;;;;;;8.30;5.90;;;;;;;11.96;74.78;99586.76;214256;1276;141081;-67
2022/09/11 20:27:21;;;;;;;11.40;5.10;;;;;;;11.96;75.03;99586.91;215831;1276;140964;-66
2022/09/11 20:32:24;;;;;;;6.10;4.20;;;;;;;11.92;75.14;99589.92;214924;1276;140095;-67
2022/09/11 20:37:26;;;;;;;36.80;5.60;;;;;;;11.86;74.66;99591.98;214406;1276;139494;-67
2022/09/11 20:42:29;;;;;;;8.60;4.20;;;;;;;11.76;74.54;99592.94;215820;1275;140242;-69
2022/09/11 20:47:32;;;;;;;6.20;3.90;;;;;;;11.65;74.47;99594.73;215914;1275;139918;-67
2022/09/11 20:52:35;;;;;;;11.60;4.40;;;;;;;11.53;74.72;99597.77;215207;1276;139742;-67
2022/09/11 20:57:41;;;;;;;;;;;;;;;11.41;74.50;99599.60;215420;1276;141342;-66
2022/09/11 21:02:44;;;;;;;4.90;4.00;;;;;;;11.32;74.82;99600.70;215101;1276;128098;-70
2022/09/11 21:07:50;;;;;;;5.00;4.20;;;;;;;11.25;74.69;99597.35;215525;1275;140168;-68
2022/09/11 21:12:54;;;;;;;7.90;5.60;;;;;;;11.21;75.06;99600.25;213297;1276;140577;-66
2022/09/11 21:17:57;;;;;;;9.30;4.10;;;;;;;11.18;75.43;99603.19;213541;1276;141244;-66
2022/09/11 21:22:59;;;;;;;8.10;5.10;;;;;;;11.10;75.56;99601.46;213956;1275;140993;-66
2022/09/11 21:28:02;;;;;;;7.90;4.50;;;;;;;11.13;75.97;99598.64;213733;1276;154203;-66
2022/09/11 21:33:04;;;;;;;6.90;4.10;;;;;;;11.20;76.13;99604.77;213186;1275;139872;-66
2022/09/11 21:38:08;;;;;;;5.10;3.50;;;;;;;11.21;76.00;99605.75;214139;1276;140335;-66
2022/09/11 21:43:10;;;;;;;9.00;3.80;;;;;;;11.13;75.95;99608.70;213238;1276;144927;-66
2022/09/11 21:48:12;;;;;;;5.30;3.70;;;;;;;11.03;75.87;99613.45;213963;1276;140965;-65
2022/09/11 21:53:18;;;;;;;4.50;3.40;;;;;;;10.98;75.97;99615.73;212451;1276;1872349;-66
2022/09/11 21:58:21;;;;;;;5.90;4.80;;;;;;;10.95;76.00;99617.64;214429;1274;141529;-64
2022/09/11 22:03:25;;;;;;;6.40;3.60;;;;;;;10.90;75.90;99618.29;213779;1276;140099;-65
2022/09/11 22:08:28;;;;;;;4.70;3.80;;;;;;;10.77;75.74;99616.49;213724;1275;139090;-67
2022/09/11 22:13:34;;;;;;;4.20;3.40;;;;;;;10.72;76.06;99621.58;214721;1276;139766;-66
2022/09/11 22:18:38;;;;;;;5.60;3.00;;;;;;;10.72;76.19;99621.32;214239;1276;140816;-65
2022/09/11 22:23:42;;;;;;;7.40;3.50;;;;;;;10.68;76.14;99621.05;213906;1274;141453;-67
2022/09/11 22:28:48;;;;;;;3.90;3.50;;;;;;;10.63;76.30;99619.20;214739;1276;139620;-67
2022/09/11 22:33:53;;;;;;;8.50;3.80;;;;;;;10.62;76.51;99620.29;213203;1276;139388;-65
2022/09/11 22:38:56;;;;;;;3.60;2.80;;;;;;;10.61;76.57;99617.11;215781;1276;141129;-66
2022/09/11 22:43:59;;;;;;;4.20;3.10;;;;;;;10.58;76.42;99615.34;215711;1276;140459;-67
2022/09/11 22:49:02;;;;;;;4.30;3.70;;;;;;;10.57;76.49;99616.09;215839;1276;140283;-66
2022/09/11 22:54:06;;;;;;;5.70;3.90;;;;;;;10.54;76.71;99612.00;213754;1274;139143;-66
2022/09/11 22:59:09;;;;;;;7.60;4.70;;;;;;;10.51;76.61;99617.92;213490;1276;139300;-66
2022/09/11 23:04:12;;;;;;;10.20;4.70;;;;;;;10.44;76.58;99620.67;214308;1275;141040;-65
2022/09/11 23:09:16;;;;;;;5.00;4.10;;;;;;;10.40;76.76;99622.98;214155;1278;141123;-66
2022/09/11 23:14:19;;;;;;;7.10;4.70;;;;;;;10.38;76.95;99625.99;213804;1277;140946;-67
2022/09/11 23:19:22;;;;;;;11.40;10.00;;;;;;;10.31;77.02;99630.02;213957;1276;140274;-64
2022/09/11 23:24:25;;;;;;;9.10;6.90;;;;;;;10.30;77.54;99629.23;214144;1276;140146;-64
2022/09/11 23:29:28;;;;;;;7.70;5.00;;;;;;;10.28;77.77;99628.12;212949;1276;141047;-65